Time;durP1;ratioP1;P1;durP2;ratioP2;P2;SDS_P1;SDS_P2;PMS_P1;PMS_P2;Temp;Humidity;BMP_temperature;BMP_pressure;BME280_temperature;BME280_humidity;BME280_pressure;Samples;Min_cycle;Max_cycle;Signal;HPM_P1;HPM_P2
2020/12/29 10:52:27;;;;;;;;;;;;;;;;;;5060418;27;9430;-68
2020/12/29 10:56:17;;;;;;;;;28.75;26.25;;;;;;;;5092810;27;1079989;-72
2020/12/29 10:58:42;;;;;;;;;37.50;34.75;;;;;;;;5099243;28;8798;-72
2020/12/29 11:01:08;;;;;;;;;81.75;62.00;;;;;;;;5097426;27;82798;-70
2020/12/29 11:03:46;;;;;;;;;45.25;35.00;;;;;17.82;42.53;98880.66;5128667;27;1082988;-71
2020/12/29 11:06:13;;;;;;;;;33.00;30.75;;;;;17.08;45.34;98895.16;5092897;27;8809;-70
2020/12/29 11:08:38;;;;;;;;;43.00;33.00;;;;;16.98;46.11;98878.03;5141264;27;8864;-69
2020/12/29 11:11:04;;;;;;;;;25.00;25.00;;;;;17.17;45.60;98900.09;5120498;27;11010;-68
2020/12/29 11:13:29;;;;;;;;;28.75;24.75;;;;;17.39;45.59;98889.00;5126016;27;10802;-65
2020/12/29 11:15:55;;;;;;;;;24.50;19.25;;;;;17.49;44.63;98892.16;5108116;28;8803;-67
2020/12/29 11:18:20;;;;;;;;;24.25;20.75;;;;;17.99;44.24;98894.00;5127342;27;8836;-68
2020/12/29 11:20:49;;;;;;;;;24.50;18.75;;;;;18.44;43.86;98885.47;5092930;27;8802;-78
2020/12/29 11:23:15;;;;;;;;;25.00;19.50;;;;;18.72;42.79;98889.75;5105020;28;8815;-70
2020/12/29 11:25:40;;;;;;;;;18.75;17.00;;;;;18.49;43.10;98890.53;5089696;28;10159;-77
2020/12/29 11:28:05;;;;;;;;;16.50;16.25;;;;;18.50;44.11;98884.38;5106041;28;10783;-78
2020/12/29 11:30:31;;;;;;;;;18.00;16.00;;;;;18.06;44.91;98897.28;5102347;28;8798;-74
2020/12/29 11:32:56;;;;;;;;;21.25;15.50;;;;;18.10;44.72;98908.47;5086982;28;8835;-66
2020/12/29 11:35:22;;;;;;;;;15.33;14.33;;;;;18.07;44.69;98901.59;5073901;28;8802;-63
2020/12/29 11:37:47;;;;;;;;;17.00;14.33;;;;;17.89;45.14;98902.22;5089824;28;8833;-65
2020/12/29 11:42:44;;;;;;;;;15.00;13.00;;;;;18.25;45.88;98906.22;5107485;27;788206;-58
2020/12/29 11:46:28;;;;;;;;;11.75;8.75;;;;;16.48;51.84;98916.88;5084493;27;13504;-60
2020/12/29 11:48:53;;;;;;;;;14.25;9.25;;;;;16.29;52.13;98910.44;5067031;28;9563;-64
2020/12/29 11:51:19;;;;;;;;;8.25;8.25;;;;;16.25;52.76;98912.28;5065387;28;8819;-63
2020/12/29 11:53:44;;;;;;;;;8.00;8.00;;;;;16.21;51.81;98920.22;5098150;28;8833;-64
2020/12/29 11:56:10;;;;;;;;;12.25;8.25;;;;;16.17;52.80;98918.63;5081943;28;8814;-67
2020/12/29 11:58:36;;;;;;;;;9.25;4.50;;;;;16.15;53.23;98913.41;5066182;28;8813;-63
2020/12/29 12:01:01;;;;;;;;;7.75;7.75;;;;;16.16;53.33;98915.13;5080580;28;10275;-65
2020/12/29 12:03:27;;;;;;;;;12.25;8.50;;;;;16.16;52.16;98914.25;5064220;28;9520;-62
2020/12/29 12:05:52;;;;;;;;;9.50;8.00;;;;;16.17;53.30;98921.22;5066808;28;8842;-63
2020/12/29 12:08:18;;;;;;;;;7.00;7.00;;;;;16.19;52.05;98927.25;5076319;28;8838;-62
2020/12/29 12:10:43;;;;;;;;;6.00;3.25;;;;;16.12;53.28;98931.75;5075495;28;8791;-62
2020/12/29 12:13:08;;;;;;;;;6.00;6.00;;;;;16.12;53.56;98926.53;5081930;28;8792;-63
2020/12/29 12:15:34;;;;;;;;;8.75;5.50;;;;;16.08;53.67;98935.31;5081440;28;8802;-62
2020/12/29 12:17:59;;;;;;;;;14.50;7.25;;;;;15.95;53.70;98937.41;5063683;28;8783;-63
2020/12/29 12:20:25;;;;;;;;;15.25;11.00;;;;;15.95;53.63;98939.16;5082872;28;8834;-61
2020/12/29 12:22:50;;;;;;;;;12.00;6.75;;;;;15.94;53.23;98946.13;5066443;28;8806;-62
2020/12/29 12:25:15;;;;;;;;;11.50;9.25;;;;;15.95;53.27;98953.06;5081618;28;8818;-60
2020/12/29 12:27:41;;;;;;;;;4.25;4.25;;;;;15.89;52.68;98950.59;5056411;28;10860;-59
2020/12/29 12:30:06;;;;;;;;;8.25;7.75;;;;;15.94;53.40;98956.56;5044158;28;9567;-62
2020/12/29 12:32:32;;;;;;;;;11.00;6.75;;;;;15.96;53.94;98964.34;5028483;28;8875;-59
2020/12/29 12:34:57;;;;;;;;;8.00;6.25;;;;;15.92;52.57;98968.75;5028472;28;8817;-60
2020/12/29 12:37:22;;;;;;;;;10.00;7.50;;;;;15.92;53.30;98975.72;5060111;28;8840;-59
2020/12/29 12:39:48;;;;;;;;;5.00;5.00;;;;;15.93;52.66;98978.28;5060920;28;8802;-60
2020/12/29 12:42:18;;;;;;;;;6.50;6.50;;;;;15.93;52.99;98983.50;5045156;28;8808;-62
2020/12/29 12:44:43;;;;;;;;;8.50;5.25;;;;;15.96;53.49;98980.00;5043266;28;8837;-63
2020/12/29 12:47:09;;;;;;;;;6.00;6.00;;;;;15.98;53.78;98994.69;5043837;28;11284;-61
2020/12/29 12:49:34;;;;;;;;;7.00;6.00;;;;;15.99;53.71;98998.16;5059188;28;8796;-62
2020/12/29 12:52:00;;;;;;;;;10.75;6.00;;;;;15.97;53.43;99000.81;5041571;28;8906;-63
2020/12/29 12:54:59;;;;;;;;;8.00;6.50;;;;;16.04;54.34;98996.31;5047317;27;13524;-63
